createdAt,value
2019-01-05T00:01:47.185Z,11.00
2019-01-05T00:04:35.262Z,9.40
2019-01-05T00:07:23.620Z,9.40
2019-01-05T00:10:09.467Z,8.77
2019-01-05T00:13:00.479Z,9.43
2019-01-05T00:15:56.085Z,9.50
2019-01-05T00:18:41.193Z,9.37
2019-01-05T00:21:32.795Z,8.20
2019-01-05T00:24:20.004Z,7.20
2019-01-05T00:27:08.388Z,7.33
2019-01-05T00:29:57.566Z,7.60
2019-01-05T00:32:52.435Z,7.70
2019-01-05T00:36:00.793Z,6.87
2019-01-05T00:39:09.257Z,6.40
2019-01-05T00:42:02.359Z,6.53
2019-01-05T00:45:09.585Z,6.67
2019-01-05T00:48:05.232Z,5.87
2019-01-05T00:50:52.428Z,6.60
2019-01-05T00:53:49.993Z,7.33
2019-01-05T00:56:47.688Z,8.77
2019-01-05T00:59:31.773Z,7.30
2019-01-05T01:02:35.509Z,7.80
2019-01-05T01:05:21.610Z,7.60
2019-01-05T01:08:08.114Z,9.37
2019-01-05T01:10:55.801Z,9.17
2019-01-05T01:13:43.046Z,8.00
2019-01-05T01:16:23.683Z,9.73
2019-01-05T01:19:08.153Z,9.27
2019-01-05T01:22:02.344Z,8.90
2019-01-05T01:24:54.950Z,7.80
2019-01-05T01:27:41.786Z,8.03
2019-01-05T01:30:28.805Z,6.80
2019-01-05T01:33:15.251Z,7.43
2019-01-05T01:36:09.698Z,6.57
2019-01-05T01:39:18.903Z,7.07
2019-01-05T01:42:19.361Z,6.00
2019-01-05T01:45:06.168Z,6.40
2019-01-05T01:47:55.049Z,5.13
2019-01-05T01:50:42.800Z,5.60
2019-01-05T01:53:32.854Z,5.33
2019-01-05T01:56:19.137Z,4.90
2019-01-05T01:59:15.230Z,5.47
2019-01-05T02:02:02.535Z,4.90
2019-01-05T02:05:03.300Z,4.27
2019-01-05T02:07:53.697Z,4.33
2019-01-05T02:10:46.149Z,4.77
2019-01-05T02:13:49.046Z,5.30
2019-01-05T02:16:40.033Z,3.33
2019-01-05T02:19:59.318Z,4.00
2019-01-05T02:23:10.917Z,4.10
2019-01-05T02:26:26.397Z,4.23
2019-01-05T02:30:08.588Z,4.97
2019-01-05T02:33:45.511Z,4.20
2019-01-05T02:37:16.713Z,3.87
2019-01-05T02:40:28.375Z,3.53
2019-01-05T02:43:59.785Z,3.30
2019-01-05T02:47:04.493Z,3.90
2019-01-05T02:50:28.343Z,3.00
2019-01-05T02:53:57.513Z,3.40
2019-01-05T02:57:29.333Z,2.97
2019-01-05T03:00:49.472Z,2.47
2019-01-05T03:04:21.165Z,2.47
2019-01-05T03:07:48.818Z,2.00
2019-01-05T03:11:11.025Z,2.30
2019-01-05T03:14:27.083Z,1.47
2019-01-05T03:17:49.019Z,2.10
2019-01-05T03:21:03.440Z,1.73
2019-01-05T03:24:25.501Z,1.80
2019-01-05T03:28:03.082Z,2.27
2019-01-05T03:31:25.930Z,1.83
2019-01-05T03:34:28.874Z,1.60
2019-01-05T03:37:45.697Z,1.83
2019-01-05T03:41:08.175Z,2.17
2019-01-05T03:44:51.117Z,2.37
2019-01-05T03:48:34.039Z,2.57
2019-01-05T03:52:07.194Z,2.00
2019-01-05T03:55:48.228Z,1.47
2019-01-05T03:59:31.082Z,2.23
2019-01-05T04:03:09.661Z,2.00
2019-01-05T04:06:32.195Z,1.80
2019-01-05T04:09:53.617Z,1.67
2019-01-05T04:13:07.085Z,1.90
2019-01-05T04:16:35.595Z,1.83
2019-01-05T04:20:13.109Z,1.83
2019-01-05T04:23:52.917Z,1.90
2019-01-05T04:27:13.425Z,2.50
2019-01-05T04:30:49.471Z,2.20
2019-01-05T04:34:22.374Z,1.80
2019-01-05T04:37:45.106Z,2.13
2019-01-05T04:40:47.739Z,1.90
2019-01-05T04:43:59.899Z,1.80
2019-01-05T04:47:29.150Z,2.20
2019-01-05T04:50:45.547Z,1.83
2019-01-05T04:54:16.073Z,1.73
2019-01-05T04:58:05.584Z,1.30
2019-01-05T05:01:47.183Z,1.40
2019-01-05T05:05:10.169Z,1.50
2019-01-05T05:08:46.401Z,1.27
2019-01-05T05:12:14.959Z,1.20
2019-01-05T05:16:10.737Z,1.33
2019-01-05T05:19:39.018Z,1.80
2019-01-05T05:23:04.694Z,1.37
2019-01-05T05:26:19.513Z,1.30
2019-01-05T05:29:57.481Z,1.10
2019-01-05T05:33:02.782Z,1.33
2019-01-05T05:36:25.904Z,1.60
2019-01-05T05:40:15.889Z,1.20
2019-01-05T05:43:30.685Z,1.43
2019-01-05T05:47:04.926Z,1.10
2019-01-05T05:50:25.287Z,1.57
2019-01-05T05:53:40.377Z,1.50
2019-01-05T05:57:21.048Z,1.83
2019-01-05T06:00:59.459Z,1.50
2019-01-05T06:04:21.179Z,2.40
2019-01-05T06:07:56.208Z,1.90
2019-01-05T06:11:18.903Z,2.40
2019-01-05T06:14:35.239Z,2.27
2019-01-05T06:18:01.353Z,2.30
2019-01-05T06:21:09.783Z,2.60
2019-01-05T06:24:22.310Z,3.30
2019-01-05T06:28:14.478Z,3.37
2019-01-05T06:31:36.824Z,3.30
2019-01-05T06:35:00.669Z,3.63
2019-01-05T06:38:11.829Z,3.67
2019-01-05T06:41:36.970Z,3.53
2019-01-05T06:45:22.052Z,3.77
2019-01-05T06:48:36.082Z,2.40
2019-01-05T06:51:56.300Z,3.67
2019-01-05T06:55:09.026Z,3.03
2019-01-05T06:58:24.154Z,3.13
2019-01-05T07:01:50.029Z,3.33
2019-01-05T07:05:29.399Z,3.27
2019-01-05T07:08:44.036Z,2.80
2019-01-05T07:11:54.953Z,3.40
2019-01-05T07:15:09.224Z,3.23
2019-01-05T07:18:50.242Z,3.00
2019-01-05T07:22:12.795Z,2.80
2019-01-05T07:25:54.105Z,3.10
2019-01-05T07:29:16.887Z,2.83
2019-01-05T07:33:03.885Z,2.70
2019-01-05T07:36:44.986Z,3.20
2019-01-05T07:40:02.974Z,6.80
2019-01-05T07:43:34.938Z,12.80
2019-01-05T07:46:55.485Z,7.37
2019-01-05T07:50:18.173Z,7.40
2019-01-05T07:53:51.413Z,6.20
2019-01-05T07:57:11.073Z,4.50
2019-01-05T08:00:47.543Z,4.00
2019-01-05T08:04:24.110Z,4.23
2019-01-05T08:07:47.416Z,5.23
2019-01-05T08:11:00.389Z,4.10
2019-01-05T08:14:42.570Z,3.77
2019-01-05T08:18:13.329Z,3.47
2019-01-05T08:21:36.281Z,4.80
2019-01-05T08:24:52.729Z,13.30
2019-01-05T08:28:15.657Z,8.20
2019-01-05T08:31:33.949Z,4.40
2019-01-05T08:34:52.383Z,3.80
2019-01-05T08:38:23.017Z,3.80
2019-01-05T08:41:32.608Z,3.77
2019-01-05T08:44:54.104Z,4.30
2019-01-05T08:48:15.392Z,4.13
2019-01-05T08:51:27.206Z,4.20
2019-01-05T08:54:51.582Z,4.63
2019-01-05T08:58:36.977Z,4.03
2019-01-05T09:02:04.400Z,4.30
2019-01-05T09:05:33.834Z,3.90
2019-01-05T09:09:02.407Z,3.60
2019-01-05T09:12:25.358Z,3.10
2019-01-05T09:15:59.117Z,3.20
2019-01-05T09:19:44.618Z,4.07
2019-01-05T09:23:06.070Z,4.20
2019-01-05T09:26:35.806Z,4.00
2019-01-05T09:29:53.102Z,5.40
2019-01-05T09:33:29.830Z,4.47
2019-01-05T09:36:55.818Z,3.73
2019-01-05T09:40:31.150Z,3.93
2019-01-05T09:44:05.436Z,4.80
2019-01-05T09:47:38.637Z,4.13
2019-01-05T09:51:00.105Z,4.80
2019-01-05T09:55:02.994Z,4.30
2019-01-05T09:58:27.485Z,4.50
2019-01-05T10:01:51.589Z,4.30
2019-01-05T10:05:00.157Z,4.70
2019-01-05T10:08:23.258Z,4.77
2019-01-05T10:11:51.960Z,4.27
2019-01-05T10:15:22.009Z,5.17
2019-01-05T10:18:51.361Z,5.63
2019-01-05T10:22:19.962Z,4.37
2019-01-05T10:25:38.084Z,4.80
2019-01-05T10:28:49.669Z,5.07
2019-01-05T10:35:12.729Z,5.10
2019-01-05T10:38:42.080Z,5.07
2019-01-05T10:42:06.398Z,5.03
2019-01-05T10:45:19.230Z,5.40
2019-01-05T10:48:59.885Z,4.90
2019-01-05T10:52:05.315Z,4.97
2019-01-05T10:55:20.062Z,4.73
2019-01-05T10:58:51.821Z,4.70
2019-01-05T11:02:15.770Z,5.17
2019-01-05T11:06:11.237Z,4.27
2019-01-05T11:09:52.671Z,5.97
2019-01-05T11:12:58.297Z,4.77
2019-01-05T11:16:10.325Z,4.90
2019-01-05T11:19:36.530Z,4.93
2019-01-05T11:22:49.065Z,5.83
2019-01-05T11:26:29.957Z,5.17
2019-01-05T11:29:53.836Z,5.40
2019-01-05T11:33:41.318Z,5.93
2019-01-05T11:37:23.069Z,5.10
2019-01-05T11:40:44.009Z,4.27
2019-01-05T11:44:17.926Z,5.83
2019-01-05T11:47:37.316Z,4.43
2019-01-05T11:51:02.912Z,4.50
2019-01-05T11:54:31.235Z,4.00
2019-01-05T11:58:17.826Z,4.50
2019-01-05T12:01:28.873Z,4.70
2019-01-05T12:05:03.123Z,5.97
2019-01-05T12:08:34.894Z,4.30
2019-01-05T12:12:03.869Z,5.10
2019-01-05T12:15:29.930Z,4.90
2019-01-05T12:18:51.653Z,4.30
2019-01-05T12:22:21.128Z,5.30
2019-01-05T12:25:49.449Z,4.50
2019-01-05T12:29:12.389Z,3.97
2019-01-05T12:36:16.943Z,4.57
2019-01-05T12:40:03.702Z,4.70
2019-01-05T12:43:30.159Z,4.40
2019-01-05T12:47:07.917Z,5.33
2019-01-05T12:50:51.048Z,5.90
2019-01-05T12:54:27.061Z,4.33
2019-01-05T12:58:14.891Z,4.93
2019-01-05T13:01:44.919Z,5.43
2019-01-05T13:05:06.342Z,5.00
2019-01-05T13:08:40.186Z,5.10
2019-01-05T13:12:29.833Z,4.97
2019-01-05T13:15:41.470Z,5.90
2019-01-05T13:19:07.276Z,5.63
2019-01-05T13:22:32.449Z,5.23
2019-01-05T13:26:05.147Z,5.00
2019-01-05T13:30:07.495Z,4.53
2019-01-05T13:33:44.779Z,4.87
2019-01-05T13:37:00.980Z,4.70
2019-01-05T13:40:45.272Z,4.60
2019-01-05T13:44:07.957Z,4.47
2019-01-05T13:47:41.084Z,5.20
2019-01-05T13:51:21.797Z,5.20
2019-01-05T13:54:08.890Z,5.07
2019-01-05T13:57:00.433Z,4.20
2019-01-05T13:59:47.714Z,5.07
2019-01-05T14:02:35.827Z,4.87
2019-01-05T14:05:39.530Z,5.03
2019-01-05T14:08:27.222Z,4.27
2019-01-05T14:11:16.557Z,5.13
2019-01-05T14:14:01.151Z,4.83
2019-01-05T14:16:47.869Z,5.83
2019-01-05T14:19:38.081Z,5.93
2019-01-05T14:22:24.733Z,7.40
2019-01-05T14:25:05.328Z,7.43
2019-01-05T14:27:52.293Z,6.67
2019-01-05T14:30:36.119Z,5.23
2019-01-05T14:33:27.051Z,5.00
2019-01-05T14:36:13.701Z,4.23
2019-01-05T14:39:00.381Z,5.70
2019-01-05T14:42:06.468Z,4.60
2019-01-05T14:45:01.845Z,4.70
2019-01-05T14:48:05.123Z,5.67
2019-01-05T14:50:55.901Z,4.70
2019-01-05T14:53:53.353Z,5.50
2019-01-05T14:56:43.965Z,4.87
2019-01-05T14:59:47.361Z,5.37
2019-01-05T15:02:47.823Z,5.70
2019-01-05T15:05:47.818Z,5.90
2019-01-05T15:08:34.753Z,6.27
2019-01-05T15:11:17.173Z,5.77
2019-01-05T15:13:56.062Z,5.60
2019-01-05T15:16:45.300Z,5.57
2019-01-05T15:19:29.066Z,5.50
2019-01-05T15:22:11.452Z,5.70
2019-01-05T15:27:15.561Z,6.07
2019-01-05T15:53:18.669Z,10.27
2019-01-05T15:56:05.485Z,11.40
2019-01-05T16:04:29.081Z,26.05
2019-01-05T16:07:15.918Z,13.57
2019-01-05T16:10:19.252Z,15.37
2019-01-05T16:13:17.911Z,12.43
2019-01-05T16:16:04.876Z,10.97
2019-01-05T16:19:08.569Z,11.33
2019-01-05T16:22:00.634Z,10.20
2019-01-05T16:24:54.586Z,9.37
2019-01-05T16:27:41.460Z,10.50
2019-01-05T16:30:39.018Z,10.23
2019-01-05T16:33:32.852Z,9.43
2019-01-05T16:36:17.801Z,9.27
2019-01-05T16:39:01.282Z,10.10
2019-01-05T16:41:47.997Z,8.87
2019-01-05T16:44:36.491Z,9.30
2019-01-05T16:47:27.492Z,8.90
2019-01-05T16:50:14.297Z,9.60
2019-01-05T16:53:06.165Z,8.47
2019-01-05T16:55:54.179Z,8.77
2019-01-05T16:58:42.360Z,8.73
2019-01-05T17:01:48.619Z,10.10
2019-01-05T17:04:37.846Z,8.80
2019-01-05T17:07:24.638Z,8.80
2019-01-05T17:10:15.888Z,10.37
2019-01-05T17:13:03.453Z,8.73
2019-01-05T17:15:57.941Z,10.20
2019-01-05T17:18:40.989Z,10.57
2019-01-05T17:21:28.086Z,9.00
2019-01-05T17:24:14.929Z,10.13
2019-01-05T17:27:14.785Z,9.40
2019-01-05T17:30:11.808Z,9.17
2019-01-05T17:32:58.376Z,9.80
2019-01-05T17:35:45.291Z,9.60
2019-01-05T17:38:26.487Z,9.53
2019-01-05T17:41:10.896Z,10.73
2019-01-05T17:44:02.724Z,9.83
2019-01-05T17:46:47.701Z,11.00
2019-01-05T17:49:34.706Z,11.37
2019-01-05T17:52:21.793Z,11.33
2019-01-05T17:55:18.398Z,13.03
2019-01-05T17:58:03.552Z,12.23
2019-01-05T18:01:03.638Z,11.77
2019-01-05T18:03:51.220Z,13.67
2019-01-05T18:06:31.495Z,11.40
2019-01-05T18:09:18.602Z,10.57
2019-01-05T18:12:24.604Z,10.77
2019-01-05T18:15:14.332Z,10.27
2019-01-05T18:18:01.164Z,11.40
2019-01-05T18:20:41.116Z,10.60
2019-01-05T18:23:30.422Z,11.50
2019-01-05T18:26:19.550Z,10.40
2019-01-05T18:29:20.286Z,9.63
2019-01-05T18:32:23.268Z,10.93
2019-01-05T18:35:20.528Z,9.87
2019-01-05T18:38:17.093Z,10.00
2019-01-05T18:41:04.318Z,9.93
2019-01-05T18:43:51.359Z,10.10
2019-01-05T18:46:38.105Z,10.23
2019-01-05T18:49:25.933Z,9.80
2019-01-05T18:52:24.981Z,10.10
2019-01-05T18:55:08.994Z,9.60
2019-01-05T18:58:00.163Z,10.37
2019-01-05T19:00:48.212Z,10.20
2019-01-05T19:03:35.573Z,10.67
2019-01-05T19:06:23.435Z,9.57
2019-01-05T19:09:09.989Z,10.53
2019-01-05T19:12:09.618Z,11.10
2019-01-05T19:14:56.390Z,10.97
2019-01-05T19:17:43.206Z,9.43
2019-01-05T19:20:32.924Z,11.10
2019-01-05T19:23:32.726Z,11.50
2019-01-05T19:26:19.455Z,17.20
2019-01-05T19:29:04.686Z,12.40
2019-01-05T19:31:51.696Z,10.50
2019-01-05T19:34:42.670Z,10.40
2019-01-05T19:37:29.453Z,11.97
2019-01-05T19:40:31.952Z,11.67
2019-01-05T19:43:18.860Z,10.70
2019-01-05T19:46:05.616Z,10.27
2019-01-05T19:49:02.857Z,10.50
2019-01-05T19:51:51.562Z,9.70
2019-01-05T19:54:42.652Z,10.10
2019-01-05T19:57:33.807Z,10.63
2019-01-05T20:00:27.710Z,9.30
2019-01-05T20:03:30.632Z,10.40
2019-01-05T20:06:19.235Z,9.70
2019-01-05T20:09:06.252Z,8.73
2019-01-05T20:12:09.426Z,10.40
2019-01-05T20:14:56.323Z,9.93
2019-01-05T20:17:43.526Z,9.30
2019-01-05T20:20:38.015Z,8.83
2019-01-05T20:23:18.466Z,10.57
2019-01-05T20:26:12.728Z,9.60
2019-01-05T20:28:59.793Z,10.43
2019-01-05T20:31:46.906Z,9.20
2019-01-05T20:34:35.012Z,10.67
2019-01-05T20:37:29.052Z,9.63
2019-01-05T20:40:19.983Z,8.57
2019-01-05T20:43:06.993Z,9.57
2019-01-05T20:45:55.212Z,9.60
2019-01-05T20:48:53.044Z,8.17
2019-01-05T20:51:39.902Z,9.23
2019-01-05T20:54:34.618Z,8.30
2019-01-05T20:57:26.505Z,8.50
2019-01-05T21:00:10.538Z,9.40
2019-01-05T21:03:17.078Z,8.20
2019-01-05T21:06:20.405Z,9.00
2019-01-05T21:09:17.655Z,10.03
2019-01-05T21:12:03.448Z,9.10
2019-01-05T21:14:51.259Z,10.30
2019-01-05T21:17:41.012Z,9.60
2019-01-05T21:20:24.465Z,9.43
2019-01-05T21:23:10.595Z,9.20
2019-01-05T21:25:57.591Z,9.47
2019-01-05T21:28:51.794Z,8.30
2019-01-05T21:31:38.822Z,9.10
2019-01-05T21:34:25.658Z,8.83
2019-01-05T21:37:15.331Z,8.57
2019-01-05T21:40:22.642Z,8.30
2019-01-05T21:43:13.152Z,8.00
2019-01-05T21:46:06.556Z,8.83
2019-01-05T21:48:53.511Z,10.80
2019-01-05T21:51:43.335Z,9.67
2019-01-05T21:54:33.065Z,8.57
2019-01-05T21:57:23.714Z,9.10
2019-01-05T22:00:22.206Z,9.33
2019-01-05T22:03:10.265Z,9.33
2019-01-05T22:06:02.533Z,8.67
2019-01-05T22:08:42.303Z,8.47
2019-01-05T22:11:32.781Z,9.27
2019-01-05T22:14:21.568Z,9.17
2019-01-05T22:17:08.616Z,9.10
2019-01-05T22:20:08.997Z,9.13
2019-01-05T22:23:09.224Z,8.97
2019-01-05T22:26:10.009Z,8.50
2019-01-05T22:28:58.932Z,8.80
2019-01-05T22:31:43.474Z,9.03
2019-01-05T22:34:30.207Z,8.93
2019-01-05T22:37:18.089Z,8.97
2019-01-05T22:40:21.686Z,8.60
2019-01-05T22:43:09.805Z,7.63
2019-01-05T22:46:12.765Z,7.60
2019-01-05T22:48:59.086Z,7.53
2019-01-05T22:51:46.275Z,7.00
2019-01-05T22:54:49.898Z,6.47
2019-01-05T22:57:49.960Z,6.37
2019-01-05T23:00:36.972Z,6.57
2019-01-05T23:03:23.803Z,5.40
2019-01-05T23:06:20.203Z,6.30
2019-01-05T23:09:06.769Z,5.97
2019-01-05T23:11:50.021Z,6.40
2019-01-05T23:14:41.408Z,6.03
2019-01-05T23:17:38.840Z,6.27
2019-01-05T23:20:25.460Z,5.63
2019-01-05T23:23:19.354Z,5.60
2019-01-05T23:26:00.205Z,6.57
2019-01-05T23:28:46.761Z,5.97
2019-01-05T23:31:45.643Z,5.20
2019-01-05T23:34:30.940Z,5.23
2019-01-05T23:37:17.648Z,5.23
2019-01-05T23:40:04.398Z,5.17
2019-01-05T23:43:01.833Z,5.87
2019-01-05T23:45:49.917Z,5.90
2019-01-05T23:48:41.954Z,6.00
2019-01-05T23:51:23.353Z,5.77
2019-01-05T23:54:10.207Z,6.20
2019-01-05T23:56:57.264Z,5.30
2019-01-05T23:59:43.585Z,5.30
